createdAt,value
2019-01-02T00:00:59.063Z,89.80
2019-01-02T00:03:26.963Z,90.10
2019-01-02T00:05:55.295Z,90.10
2019-01-02T00:08:23.947Z,90.20
2019-01-02T00:10:51.876Z,90.30
2019-01-02T00:13:19.924Z,90.30
2019-01-02T00:15:47.947Z,90.40
2019-01-02T00:18:15.817Z,90.30
2019-01-02T00:20:43.686Z,90.10
2019-01-02T00:23:11.938Z,90.00
2019-01-02T00:25:39.723Z,89.90
2019-01-02T00:28:07.958Z,89.70
2019-01-02T00:30:37.431Z,89.60
2019-01-02T00:33:05.563Z,89.30
2019-01-02T00:35:34.980Z,89.60
2019-01-02T00:38:02.935Z,90.00
2019-01-02T00:40:31.284Z,90.10
2019-01-02T00:42:59.250Z,90.20
2019-01-02T00:45:27.314Z,90.30
2019-01-02T00:47:55.222Z,90.40
2019-01-02T00:50:23.219Z,90.40
2019-01-02T00:52:51.332Z,90.50
2019-01-02T00:55:19.363Z,90.50
2019-01-02T00:57:47.625Z,90.50
2019-01-02T01:00:18.778Z,90.60
2019-01-02T01:02:47.118Z,90.60
2019-01-02T01:05:15.520Z,90.60
2019-01-02T01:07:43.753Z,90.60
2019-01-02T01:10:13.906Z,90.60
2019-01-02T01:12:42.724Z,90.60
2019-01-02T01:15:10.623Z,90.50
2019-01-02T01:17:39.109Z,90.60
2019-01-02T01:20:08.227Z,90.60
2019-01-02T01:22:36.659Z,90.60
2019-01-02T01:25:04.664Z,90.60
2019-01-02T01:27:32.576Z,90.60
2019-01-02T01:30:00.756Z,90.80
2019-01-02T01:32:29.051Z,91.00
2019-01-02T01:34:57.351Z,91.20
2019-01-02T01:37:25.319Z,91.20
2019-01-02T01:39:53.517Z,91.10
2019-01-02T01:42:22.240Z,91.10
2019-01-02T01:44:50.194Z,91.20
2019-01-02T01:47:18.642Z,91.60
2019-01-02T01:49:46.530Z,91.20
2019-01-02T01:52:14.803Z,91.20
2019-01-02T01:54:43.328Z,91.30
2019-01-02T01:57:11.736Z,91.20
2019-01-02T01:59:39.695Z,91.30
2019-01-02T02:02:07.665Z,91.30
2019-01-02T02:04:35.685Z,91.30
2019-01-02T02:07:03.990Z,91.40
2019-01-02T02:09:31.895Z,91.50
2019-01-02T02:11:59.943Z,91.70
2019-01-02T02:14:28.327Z,91.90
2019-01-02T02:16:56.379Z,91.90
2019-01-02T02:19:24.847Z,92.10
2019-01-02T02:21:52.835Z,92.10
2019-01-02T02:24:20.708Z,92.20
2019-01-02T02:26:48.669Z,92.20
2019-01-02T02:29:16.572Z,92.30
2019-01-02T02:31:44.751Z,92.30
2019-01-02T02:34:13.188Z,92.40
2019-01-02T02:36:41.515Z,92.40
2019-01-02T02:39:10.163Z,92.30
2019-01-02T02:41:38.398Z,92.40
2019-01-02T02:44:06.943Z,92.40
2019-01-02T02:46:35.301Z,92.50
2019-01-02T02:49:03.234Z,92.50
2019-01-02T02:51:31.447Z,92.50
2019-01-02T02:53:59.619Z,92.60
2019-01-02T02:56:28.310Z,92.70
2019-01-02T02:58:56.626Z,92.60
2019-01-02T03:01:24.886Z,92.70
2019-01-02T03:03:53.020Z,92.70
2019-01-02T03:06:21.094Z,92.70
2019-01-02T03:08:50.751Z,92.80
2019-01-02T03:11:18.847Z,92.70
2019-01-02T03:13:46.939Z,92.70
2019-01-02T03:16:15.263Z,92.70
2019-01-02T03:18:43.447Z,92.70
2019-01-02T03:21:11.471Z,92.60
2019-01-02T03:23:52.991Z,92.70
2019-01-02T03:26:21.240Z,92.70
2019-01-02T03:28:49.688Z,92.70
2019-01-02T03:31:17.848Z,92.80
2019-01-02T03:33:46.257Z,92.90
2019-01-02T03:36:14.184Z,93.00
2019-01-02T03:38:42.160Z,93.20
2019-01-02T03:41:10.063Z,93.20
2019-01-02T03:43:38.297Z,93.10
2019-01-02T03:46:06.167Z,93.30
2019-01-02T03:48:35.923Z,93.20
2019-01-02T03:51:04.353Z,93.20
2019-01-02T03:53:32.302Z,93.40
2019-01-02T03:56:00.163Z,93.30
2019-01-02T03:58:28.131Z,93.30
2019-01-02T04:00:56.119Z,93.30
2019-01-02T04:03:23.995Z,93.30
2019-01-02T04:05:51.888Z,93.20
2019-01-02T04:08:19.856Z,93.10
2019-01-02T04:10:47.774Z,93.30
2019-01-02T04:13:16.278Z,93.60
2019-01-02T04:15:44.529Z,93.70
2019-01-02T04:18:12.586Z,93.80
2019-01-02T04:20:40.543Z,93.90
2019-01-02T04:23:08.625Z,94.00
2019-01-02T04:25:36.656Z,93.80
2019-01-02T04:28:04.520Z,93.80
2019-01-02T04:30:32.471Z,93.90
2019-01-02T04:33:00.358Z,93.90
2019-01-02T04:35:28.338Z,93.90
2019-01-02T04:37:56.399Z,93.90
2019-01-02T04:40:24.575Z,94.10
2019-01-02T04:42:52.674Z,94.10
2019-01-02T04:45:20.779Z,94.20
2019-01-02T04:47:48.700Z,94.40
2019-01-02T04:50:16.729Z,94.40
2019-01-02T04:52:44.627Z,94.50
2019-01-02T04:55:12.507Z,94.60
2019-01-02T04:57:40.475Z,94.60
2019-01-02T05:00:16.226Z,94.50
2019-01-02T05:02:44.269Z,94.30
2019-01-02T05:05:12.271Z,94.20
2019-01-02T05:07:40.158Z,94.50
2019-01-02T05:10:09.841Z,94.70
2019-01-02T05:12:37.871Z,94.80
2019-01-02T05:15:06.617Z,94.90
2019-01-02T05:17:34.597Z,94.70
2019-01-02T05:20:02.464Z,94.70
2019-01-02T05:22:30.319Z,94.80
2019-01-02T05:24:58.283Z,95.20
2019-01-02T05:27:26.284Z,95.30
2019-01-02T05:29:54.129Z,95.30
2019-01-02T05:32:22.003Z,95.30
2019-01-02T05:34:49.984Z,95.30
2019-01-02T05:37:17.910Z,95.60
2019-01-02T05:39:45.975Z,95.30
2019-01-02T05:42:13.955Z,95.50
2019-01-02T05:44:41.910Z,95.50
2019-01-02T05:47:09.866Z,95.40
2019-01-02T05:49:37.739Z,95.30
2019-01-02T05:52:05.687Z,95.40
2019-01-02T05:54:33.612Z,95.50
2019-01-02T05:57:01.515Z,95.70
2019-01-02T05:59:29.571Z,96.00
2019-01-02T06:01:57.587Z,96.10
2019-01-02T06:04:25.453Z,96.20
2019-01-02T06:06:53.354Z,96.40
2019-01-02T06:09:21.560Z,96.40
2019-01-02T06:11:49.490Z,96.70
2019-01-02T06:14:25.907Z,96.50
2019-01-02T06:16:53.969Z,96.40
2019-01-02T06:19:21.836Z,96.60
2019-01-02T06:21:49.669Z,96.50
2019-01-02T06:24:17.590Z,96.50
2019-01-02T06:26:45.485Z,96.50
2019-01-02T06:29:13.382Z,96.40
2019-01-02T06:31:41.303Z,96.20
2019-01-02T06:34:09.202Z,96.20
2019-01-02T06:36:37.263Z,96.30
2019-01-02T06:39:07.238Z,96.50
2019-01-02T06:41:35.101Z,96.70
2019-01-02T06:44:03.045Z,96.70
2019-01-02T06:46:31.369Z,96.80
2019-01-02T06:48:59.209Z,96.70
2019-01-02T06:51:27.175Z,96.70
2019-01-02T06:53:55.100Z,96.90
2019-01-02T06:56:23.163Z,97.20
2019-01-02T06:58:52.563Z,97.30
2019-01-02T07:01:20.739Z,97.40
2019-01-02T07:03:48.614Z,97.30
2019-01-02T07:06:18.106Z,97.70
2019-01-02T07:08:46.235Z,97.70
2019-01-02T07:11:22.586Z,97.70
2019-01-02T07:13:50.530Z,97.70
2019-01-02T07:16:18.380Z,97.80
2019-01-02T07:18:46.270Z,97.90
2019-01-02T07:21:14.203Z,98.00
2019-01-02T07:23:42.122Z,98.30
2019-01-02T07:26:10.129Z,98.40
2019-01-02T07:28:38.044Z,98.50
2019-01-02T07:31:05.983Z,98.60
2019-01-02T07:34:02.126Z,98.60
2019-01-02T07:37:09.424Z,98.70
2019-01-02T07:40:53.095Z,98.80
2019-01-02T07:44:39.913Z,99.10
2019-01-02T07:48:45.644Z,99.30
2019-01-02T07:51:56.944Z,99.60
2019-01-02T07:55:16.183Z,99.70
2019-01-02T07:59:00.659Z,99.90
2019-01-02T08:02:28.481Z,99.90
2019-01-02T08:05:23.503Z,99.90
2019-01-02T08:08:13.635Z,99.90
2019-01-02T08:11:38.547Z,99.90
2019-01-02T08:14:48.063Z,99.90
2019-01-02T08:17:29.740Z,99.90
2019-01-02T08:21:02.988Z,99.90
2019-01-02T08:24:04.362Z,99.90
2019-01-02T08:27:08.820Z,99.90
2019-01-02T08:29:57.059Z,99.90
2019-01-02T08:32:55.868Z,99.90
2019-01-02T08:36:10.935Z,99.90
2019-01-02T08:39:20.857Z,99.90
2019-01-02T08:42:15.342Z,99.90
2019-01-02T08:45:14.370Z,99.90
2019-01-02T08:48:13.071Z,99.90
2019-01-02T08:51:19.799Z,99.90
2019-01-02T08:54:33.600Z,99.90
2019-01-02T08:57:35.622Z,99.90
2019-01-02T09:00:29.858Z,99.90
2019-01-02T09:03:51.567Z,99.90
2019-01-02T09:06:46.527Z,99.90
2019-01-02T09:09:46.615Z,99.90
2019-01-02T09:12:36.105Z,99.90
2019-01-02T09:15:32.454Z,99.90
2019-01-02T09:18:34.243Z,99.90
2019-01-02T09:22:04.763Z,99.30
2019-01-02T09:25:10.007Z,99.70
2019-01-02T09:28:31.644Z,99.40
2019-01-02T09:31:33.591Z,99.40
2019-01-02T09:34:31.122Z,99.60
2019-01-02T09:37:40.515Z,98.50
2019-01-02T09:40:36.963Z,97.50
2019-01-02T09:43:49.338Z,96.60
2019-01-02T09:46:53.990Z,87.00
2019-01-02T09:50:11.590Z,71.50
2019-01-02T09:53:25.727Z,74.30
2019-01-02T09:56:42.619Z,57.90
2019-01-02T10:00:22.178Z,53.00
2019-01-02T10:03:30.155Z,57.10
2019-01-02T10:06:25.518Z,53.30
2019-01-02T10:09:38.070Z,54.80
2019-01-02T10:12:28.458Z,55.90
2019-01-02T10:15:46.768Z,55.10
2019-01-02T10:18:54.311Z,54.70
2019-01-02T10:22:03.860Z,55.50
2019-01-02T10:25:14.883Z,54.90
2019-01-02T10:28:27.400Z,55.00
2019-01-02T10:31:19.823Z,55.30
2019-01-02T10:34:15.860Z,53.30
2019-01-02T10:37:34.083Z,49.80
2019-01-02T10:40:48.359Z,49.20
2019-01-02T10:43:50.593Z,52.10
2019-01-02T10:47:03.030Z,50.00
2019-01-02T10:50:01.339Z,51.30
2019-01-02T10:53:05.901Z,51.60
2019-01-02T10:56:11.357Z,49.10
2019-01-02T10:59:16.160Z,50.00
2019-01-02T11:02:19.991Z,51.30
2019-01-02T11:05:36.134Z,50.90
2019-01-02T11:08:30.403Z,52.60
2019-01-02T11:11:41.368Z,53.00
2019-01-02T11:14:53.826Z,52.70
2019-01-02T11:17:48.421Z,52.30
2019-01-02T11:21:10.396Z,50.80
2019-01-02T11:24:17.503Z,51.50
2019-01-02T11:27:34.671Z,50.80
2019-01-02T11:30:39.720Z,52.60
2019-01-02T11:33:58.040Z,51.00
2019-01-02T11:37:03.594Z,50.40
2019-01-02T11:40:18.929Z,50.30
2019-01-02T11:42:54.398Z,51.10
2019-01-02T11:45:22.707Z,48.50
2019-01-02T11:47:50.559Z,49.70
2019-01-02T11:50:18.621Z,50.30
2019-01-02T11:52:46.658Z,49.90
2019-01-02T11:55:14.732Z,49.60
2019-01-02T11:57:42.840Z,49.50
2019-01-02T12:00:15.338Z,50.40
2019-01-02T12:02:43.236Z,49.20
2019-01-02T12:05:11.140Z,50.90
2019-01-02T12:07:39.161Z,48.00
2019-01-02T12:10:09.679Z,46.70
2019-01-02T12:12:37.608Z,48.00
2019-01-02T12:15:37.389Z,47.30
2019-01-02T12:18:05.607Z,46.00
2019-01-02T12:20:33.651Z,46.10
2019-01-02T12:23:01.607Z,46.80
2019-01-02T12:25:29.574Z,45.80
2019-01-02T12:27:58.119Z,47.30
2019-01-02T12:30:27.600Z,46.90
2019-01-02T12:32:55.605Z,46.80
2019-01-02T12:35:23.930Z,45.40
2019-01-02T12:37:51.844Z,45.70
2019-01-02T12:40:19.837Z,45.60
2019-01-02T12:42:47.929Z,46.50
2019-01-02T12:45:15.855Z,45.20
2019-01-02T12:47:43.875Z,44.00
2019-01-02T12:50:11.958Z,44.10
2019-01-02T12:52:39.985Z,44.00
2019-01-02T12:55:07.966Z,40.60
2019-01-02T12:57:36.042Z,40.60
2019-01-02T13:00:06.946Z,39.80
2019-01-02T13:03:21.240Z,38.60
2019-01-02T13:06:41.910Z,39.00
2019-01-02T13:09:27.632Z,36.20
2019-01-02T13:12:25.345Z,38.40
2019-01-02T13:15:47.119Z,38.30
2019-01-02T13:19:10.351Z,37.90
2019-01-02T13:22:19.499Z,37.70
2019-01-02T13:25:37.713Z,38.20
2019-01-02T13:29:02.240Z,36.60
2019-01-02T13:32:17.557Z,35.80
2019-01-02T13:35:17.832Z,37.10
2019-01-02T13:38:16.132Z,33.40
2019-01-02T13:41:28.548Z,33.40
2019-01-02T13:44:52.966Z,35.20
2019-01-02T13:47:59.672Z,34.50
2019-01-02T13:50:51.070Z,33.40
2019-01-02T13:53:19.033Z,33.80
2019-01-02T13:55:46.985Z,31.60
2019-01-02T13:58:15.047Z,32.80
2019-01-02T14:00:43.096Z,33.80
2019-01-02T14:03:11.140Z,34.80
2019-01-02T14:05:42.459Z,34.80
2019-01-02T14:08:10.495Z,33.20
2019-01-02T14:10:38.404Z,33.00
2019-01-02T14:13:06.378Z,31.50
2019-01-02T14:16:00.789Z,31.60
2019-01-02T14:18:28.375Z,31.70
2019-01-02T14:20:56.281Z,29.80
2019-01-02T14:23:24.308Z,29.90
2019-01-02T14:25:52.484Z,32.20
2019-01-02T14:28:20.433Z,31.80
2019-01-02T14:30:48.496Z,31.80
2019-01-02T14:33:16.391Z,32.10
2019-01-02T14:35:44.280Z,32.10
2019-01-02T14:38:12.319Z,32.00
2019-01-02T14:40:40.237Z,32.40
2019-01-02T14:43:08.228Z,33.40
2019-01-02T14:45:36.674Z,33.10
2019-01-02T14:48:04.571Z,33.10
2019-01-02T14:50:32.416Z,32.90
2019-01-02T14:53:00.383Z,31.00
2019-01-02T14:55:28.260Z,31.40
2019-01-02T14:57:56.157Z,31.30
2019-01-02T15:00:24.586Z,31.00
2019-01-02T15:02:52.521Z,31.10
2019-01-02T15:05:20.574Z,30.00
2019-01-02T15:07:48.578Z,29.70
2019-01-02T15:10:16.527Z,30.10
2019-01-02T15:12:44.552Z,31.20
2019-01-02T15:15:35.771Z,31.50
2019-01-02T15:18:03.793Z,31.10
2019-01-02T15:20:32.113Z,31.10
2019-01-02T15:23:00.128Z,32.00
2019-01-02T15:25:28.092Z,32.00
2019-01-02T15:27:57.686Z,32.60
2019-01-02T15:30:26.456Z,33.00
2019-01-02T15:32:54.319Z,33.00
2019-01-02T15:36:09.447Z,32.20
2019-01-02T15:39:40.854Z,32.10
2019-01-02T15:42:06.365Z,33.10
2019-01-02T15:44:34.335Z,32.00
2019-01-02T15:47:03.154Z,31.60
2019-01-02T15:49:31.427Z,31.70
2019-01-02T15:51:59.450Z,30.90
2019-01-02T15:54:27.383Z,30.60
2019-01-02T15:56:55.383Z,32.10
2019-01-02T15:59:23.294Z,32.80
2019-01-02T16:01:52.152Z,34.10
2019-01-02T16:04:20.109Z,34.80
2019-01-02T16:06:48.075Z,34.50
2019-01-02T16:09:16.143Z,34.40
2019-01-02T16:11:44.362Z,34.40
2019-01-02T16:14:17.797Z,34.90
2019-01-02T16:16:45.764Z,34.70
2019-01-02T16:19:13.889Z,35.70
2019-01-02T16:22:01.794Z,35.40
2019-01-02T16:24:29.959Z,34.40
2019-01-02T16:26:57.843Z,36.00
2019-01-02T16:29:25.840Z,36.50
2019-01-02T16:31:53.699Z,37.70
2019-01-02T16:34:22.203Z,38.90
2019-01-02T16:36:50.043Z,38.00
2019-01-02T16:39:18.111Z,38.50
2019-01-02T16:41:46.113Z,38.70
2019-01-02T16:44:14.071Z,39.60
2019-01-02T16:46:42.295Z,40.00
2019-01-02T16:49:10.463Z,40.30
2019-01-02T16:51:38.332Z,39.90
2019-01-02T16:54:06.267Z,38.00
2019-01-02T16:56:34.132Z,37.90
2019-01-02T16:59:02.447Z,38.90
2019-01-02T17:01:30.402Z,36.60
2019-01-02T17:03:58.285Z,38.00
2019-01-02T17:06:26.315Z,37.10
2019-01-02T17:08:54.249Z,36.30
2019-01-02T17:11:25.302Z,36.60
2019-01-02T17:13:53.254Z,37.40
2019-01-02T17:16:45.508Z,38.40
2019-01-02T17:19:13.348Z,37.70
2019-01-02T17:21:41.265Z,37.00
2019-01-02T17:24:09.332Z,36.20
2019-01-02T17:26:37.247Z,36.40
2019-01-02T17:29:05.268Z,36.70
2019-01-02T17:31:33.253Z,35.80
2019-01-02T17:34:01.301Z,36.00
2019-01-02T17:36:29.360Z,36.70
2019-01-02T17:39:20.634Z,36.90
2019-01-02T17:41:48.754Z,37.00
2019-01-02T17:44:16.618Z,37.10
2019-01-02T17:46:44.663Z,36.90
2019-01-02T17:49:12.717Z,37.40
2019-01-02T17:51:40.872Z,37.70
2019-01-02T17:54:08.912Z,37.60
2019-01-02T17:56:36.957Z,37.60
2019-01-02T17:59:04.849Z,37.90
2019-01-02T18:01:33.256Z,38.60
2019-01-02T18:04:03.063Z,38.10
2019-01-02T18:06:31.214Z,39.80
2019-01-02T18:08:59.320Z,39.20
2019-01-02T18:11:27.211Z,36.80
2019-01-02T18:13:55.342Z,37.20
2019-01-02T18:16:38.233Z,40.50
2019-01-02T18:19:06.197Z,41.40
2019-01-02T18:21:34.131Z,40.90
2019-01-02T18:24:02.183Z,39.80
2019-01-02T18:26:30.039Z,41.20
2019-01-02T18:28:57.967Z,42.70
2019-01-02T18:31:25.795Z,42.70
2019-01-02T18:33:53.754Z,42.20
2019-01-02T18:36:21.619Z,42.50
2019-01-02T18:38:49.984Z,42.80
2019-01-02T18:41:17.859Z,42.30
2019-01-02T18:43:45.888Z,42.40
2019-01-02T18:46:13.995Z,43.40
2019-01-02T18:48:41.902Z,43.60
2019-01-02T18:51:09.785Z,43.50
2019-01-02T18:53:37.777Z,43.80
2019-01-02T18:56:05.898Z,43.70
2019-01-02T18:58:33.863Z,43.90
2019-01-02T19:01:01.695Z,42.60
2019-01-02T19:03:29.837Z,43.40
2019-01-02T19:05:57.723Z,43.70
2019-01-02T19:08:26.206Z,43.50
2019-01-02T19:10:54.237Z,43.40
2019-01-02T19:13:22.317Z,44.00
2019-01-02T19:16:27.739Z,45.30
2019-01-02T19:18:55.769Z,45.20
2019-01-02T19:21:23.602Z,45.50
2019-01-02T19:23:51.637Z,45.60
2019-01-02T19:26:19.619Z,44.60
2019-01-02T19:28:47.560Z,45.20
2019-01-02T19:31:15.564Z,45.80
2019-01-02T19:33:43.559Z,46.10
2019-01-02T19:37:27.285Z,45.70
2019-01-02T19:41:04.969Z,45.20
2019-01-02T19:43:30.500Z,46.30
2019-01-02T19:45:58.415Z,46.80
2019-01-02T19:48:30.641Z,46.80
2019-01-02T19:51:04.596Z,46.80
2019-01-02T19:53:36.776Z,46.70
2019-01-02T19:56:08.847Z,46.70
2019-01-02T19:58:40.110Z,46.30
2019-01-02T20:01:12.435Z,46.70
2019-01-02T20:03:40.588Z,46.80
2019-01-02T20:06:12.401Z,46.10
2019-01-02T20:08:44.162Z,46.80
2019-01-02T20:11:25.027Z,46.50
2019-01-02T20:13:53.222Z,46.80
2019-01-02T20:16:39.289Z,47.50
2019-01-02T20:19:07.173Z,47.30
2019-01-02T20:21:35.037Z,46.70
2019-01-02T20:24:02.960Z,46.60
2019-01-02T20:26:31.777Z,46.40
2019-01-02T20:28:59.847Z,47.10
2019-01-02T20:31:27.860Z,47.00
2019-01-02T20:33:55.740Z,47.20
2019-01-02T20:36:23.766Z,47.30
2019-01-02T20:38:51.771Z,47.30
2019-01-02T20:41:19.762Z,47.50
2019-01-02T20:43:48.079Z,47.70
2019-01-02T20:46:16.024Z,47.70
2019-01-02T20:48:43.926Z,47.60
2019-01-02T20:51:11.964Z,46.70
2019-01-02T20:53:40.038Z,45.20
2019-01-02T20:56:08.017Z,46.00
2019-01-02T20:58:35.934Z,46.30
2019-01-02T21:01:04.047Z,46.20
2019-01-02T21:03:32.136Z,46.50
2019-01-02T21:06:00.088Z,46.90
2019-01-02T21:08:28.045Z,46.80
2019-01-02T21:10:56.002Z,47.10
2019-01-02T21:13:23.879Z,47.30
2019-01-02T21:16:26.289Z,47.30
2019-01-02T21:18:53.288Z,46.70
2019-01-02T21:21:21.137Z,45.90
2019-01-02T21:23:49.052Z,46.00
2019-01-02T21:26:30.490Z,46.00
2019-01-02T21:28:58.452Z,45.80
2019-01-02T21:31:26.380Z,46.20
2019-01-02T21:33:54.346Z,46.50
2019-01-02T21:36:22.349Z,45.90
2019-01-02T21:38:50.213Z,45.90
2019-01-02T21:41:18.110Z,46.00
2019-01-02T21:43:46.134Z,46.10
2019-01-02T21:46:14.157Z,46.50
2019-01-02T21:48:42.210Z,46.20
2019-01-02T21:51:10.323Z,46.20
2019-01-02T21:53:38.229Z,46.40
2019-01-02T21:56:06.207Z,45.30
2019-01-02T21:58:34.836Z,45.90
2019-01-02T22:01:02.791Z,46.30
2019-01-02T22:03:30.968Z,45.90
2019-01-02T22:05:58.835Z,46.30
2019-01-02T22:08:26.967Z,45.50
2019-01-02T22:10:54.795Z,44.70
2019-01-02T22:13:22.759Z,45.80
2019-01-02T22:16:22.269Z,45.10
2019-01-02T22:18:49.454Z,45.10
2019-01-02T22:21:17.479Z,45.70
2019-01-02T22:23:45.401Z,46.60
2019-01-02T22:26:13.313Z,46.90
2019-01-02T22:28:41.363Z,46.70
2019-01-02T22:31:09.287Z,46.80
2019-01-02T22:33:37.156Z,47.10
2019-01-02T22:36:05.129Z,47.00
2019-01-02T22:38:33.010Z,47.00
2019-01-02T22:41:01.051Z,46.70
2019-01-02T22:43:29.048Z,46.90
2019-01-02T22:45:57.191Z,46.50
2019-01-02T22:48:25.167Z,46.20
2019-01-02T22:50:53.050Z,46.10
2019-01-02T22:53:20.980Z,46.40
2019-01-02T22:55:49.135Z,46.60
2019-01-02T22:58:16.995Z,46.80
2019-01-02T23:01:04.677Z,46.70
2019-01-02T23:03:55.031Z,47.10
2019-01-02T23:06:41.297Z,47.00
2019-01-02T23:09:46.785Z,47.50
2019-01-02T23:12:49.062Z,47.20
2019-01-02T23:15:51.563Z,46.70
2019-01-02T23:18:38.846Z,46.90
2019-01-02T23:21:26.125Z,45.30
2019-01-02T23:24:11.771Z,46.10
2019-01-02T23:26:57.469Z,46.50
2019-01-02T23:29:43.500Z,46.60
2019-01-02T23:32:29.172Z,46.30
2019-01-02T23:35:14.906Z,46.20
2019-01-02T23:38:15.827Z,44.80
2019-01-02T23:41:01.783Z,45.20
2019-01-02T23:43:47.867Z,45.30
2019-01-02T23:46:33.587Z,43.00
2019-01-02T23:49:19.270Z,41.50
2019-01-02T23:52:14.507Z,40.30
2019-01-02T23:55:00.264Z,37.40
2019-01-02T23:57:54.059Z,37.60
